createdAt,value
2022-09-26T00:07:30.782Z,23.90
2022-09-26T00:17:36.666Z,20.80
2022-09-26T00:27:42.346Z,20.30
2022-09-26T00:37:47.952Z,19.70
2022-09-26T00:47:59.450Z,21.50
2022-09-26T00:58:08.312Z,19.80
2022-09-26T01:08:14.990Z,19.60
2022-09-26T01:18:21.246Z,21.10
2022-09-26T01:28:43.164Z,19.90
2022-09-26T01:39:02.149Z,20.10
2022-09-26T01:49:17.977Z,22.10
2022-09-26T01:59:26.789Z,20.90
2022-09-26T02:09:39.578Z,22.00
2022-09-26T02:19:53.827Z,26.10
2022-09-26T02:29:59.729Z,28.20
2022-09-26T02:40:06.338Z,27.10
2022-09-26T02:50:22.285Z,29.70
2022-09-26T03:00:33.128Z,27.60
2022-09-26T03:10:41.791Z,27.50
2022-09-26T03:20:47.841Z,23.50
2022-09-26T03:30:53.570Z,23.40
2022-09-26T03:41:01.294Z,24.30
2022-09-26T03:51:09.221Z,23.20
2022-09-26T04:01:16.825Z,24.10
2022-09-26T04:11:24.702Z,25.10
2022-09-26T04:21:31.158Z,25.30
2022-09-26T04:31:37.913Z,25.00
2022-09-26T04:41:43.621Z,23.70
2022-09-26T04:51:49.258Z,25.00
2022-09-26T05:01:56.376Z,25.00
2022-09-26T05:12:02.474Z,23.80
2022-09-26T05:22:08.183Z,23.40
2022-09-26T05:32:20.735Z,23.40
2022-09-26T05:42:26.440Z,21.90
2022-09-26T05:52:32.637Z,23.90
2022-09-26T06:02:38.282Z,22.90
2022-09-26T06:12:47.568Z,22.30
2022-09-26T06:22:56.018Z,21.00
2022-09-26T06:33:01.797Z,22.20
2022-09-26T06:43:07.777Z,22.20
2022-09-26T06:53:13.451Z,22.00
2022-09-26T07:03:19.549Z,22.00
2022-09-26T07:13:25.720Z,19.70
2022-09-26T07:23:31.263Z,19.90
2022-09-26T07:33:36.875Z,19.20
2022-09-26T07:44:34.659Z,19.30
2022-09-26T07:54:08.489Z,17.00
2022-09-26T08:04:15.016Z,15.20
2022-09-26T08:14:20.689Z,16.80
2022-09-26T08:24:26.341Z,16.00
2022-09-26T08:34:35.020Z,13.90
2022-09-26T08:45:00.656Z,14.00
2022-09-26T08:55:14.468Z,15.00
2022-09-26T09:05:24.400Z,14.50
2022-09-26T09:15:45.016Z,15.40
2022-09-26T09:36:38.198Z,15.90
2022-09-26T09:46:45.242Z,16.10
2022-09-26T09:57:09.000Z,16.10
2022-09-26T10:07:14.779Z,13.40
2022-09-26T10:17:23.102Z,12.50
2022-09-26T10:27:37.781Z,8.10
2022-09-26T10:37:43.395Z,10.20
2022-09-26T10:47:51.423Z,9.70
2022-09-26T10:57:59.784Z,9.00
2022-09-26T11:08:08.843Z,8.00
2022-09-26T11:18:26.957Z,8.90
2022-09-26T11:28:39.289Z,8.20
2022-09-26T11:38:51.928Z,9.50
2022-09-26T11:49:19.630Z,8.30
2022-09-26T11:59:38.561Z,10.30
2022-09-26T12:10:02.066Z,9.60
2022-09-26T12:20:18.872Z,9.60
2022-09-26T12:30:32.409Z,7.80
2022-09-26T12:40:45.775Z,7.30
2022-09-26T13:01:48.502Z,8.10
2022-09-26T13:12:06.500Z,8.30
2022-09-26T13:32:34.275Z,7.90
2022-09-26T13:42:46.370Z,8.10
2022-09-26T13:53:07.952Z,8.80
2022-09-26T14:03:38.037Z,16.90
2022-09-26T14:13:43.643Z,7.30
2022-09-26T14:23:50.837Z,3.60
2022-09-26T14:34:14.648Z,4.20
2022-09-26T14:44:22.550Z,4.50
2022-09-26T14:54:35.565Z,3.60
2022-09-26T15:04:42.156Z,3.30
2022-09-26T15:14:52.626Z,5.80
2022-09-26T15:25:08.891Z,9.30
2022-09-26T15:35:16.610Z,8.50
2022-09-26T15:45:33.175Z,7.90
2022-09-26T15:55:43.849Z,8.40
2022-09-26T16:05:50.259Z,7.60
2022-09-26T16:16:06.079Z,9.40
2022-09-26T16:26:24.471Z,9.70
2022-09-26T16:36:32.684Z,11.90
2022-09-26T16:46:40.214Z,15.10
2022-09-26T16:56:47.748Z,21.20
2022-09-26T17:06:53.911Z,22.40
2022-09-26T17:17:01.289Z,22.80
2022-09-26T17:27:09.297Z,22.20
2022-09-26T17:47:23.226Z,19.10
2022-09-26T17:57:30.324Z,21.20
2022-09-26T18:07:41.111Z,24.70
2022-09-26T18:17:47.085Z,21.30
2022-09-26T18:27:56.955Z,22.10
2022-09-26T18:38:02.867Z,22.90
2022-09-26T18:48:13.201Z,22.10
2022-09-26T18:58:27.335Z,28.20
2022-09-26T19:08:36.306Z,23.80
2022-09-26T19:18:42.682Z,24.40
2022-09-26T19:28:48.658Z,20.50
2022-09-26T19:38:54.392Z,23.50
2022-09-26T19:49:00.366Z,24.30
2022-09-26T19:59:06.076Z,22.20
2022-09-26T20:09:17.309Z,24.80
2022-09-26T20:19:29.879Z,24.80
2022-09-26T20:29:49.919Z,30.00
2022-09-26T20:39:56.051Z,27.50
2022-09-26T20:50:03.635Z,27.80
2022-09-26T21:00:15.108Z,27.60
2022-09-26T21:10:26.129Z,28.00
2022-09-26T21:20:34.990Z,28.10
2022-09-26T21:30:40.838Z,24.80
2022-09-26T21:40:48.615Z,29.60
2022-09-26T21:50:58.622Z,29.90
2022-09-26T22:01:04.549Z,28.20
2022-09-26T22:11:11.150Z,29.20
2022-09-26T22:21:16.832Z,29.10
2022-09-26T22:31:22.476Z,29.30
2022-09-26T22:41:28.235Z,28.90
2022-09-26T22:51:34.560Z,26.60
2022-09-26T23:01:40.529Z,25.90
2022-09-26T23:11:47.126Z,30.30
2022-09-26T23:21:52.847Z,31.30
2022-09-26T23:31:59.074Z,28.20
2022-09-26T23:42:04.737Z,28.20
2022-09-26T23:52:10.661Z,26.40
